Flugplatz Salzgitter-Drütte (EDVS)

Hier findest Du alle Informationen zum Flugplatz Salzgitter-Drütte (EDVS).

Informationen für Piloten zum Flugplatz Salzgitter-Drütte

Hier findest Du alle relevanten Informationen, die Du als Pilot benötigst, um Salzgitter-Drütte anzufliegen.

Flugplatz: Salzgitter-Drütte ICAO-Code: EDVS
Frequenz Turm: 122,850 Mhz GAFOR Gebiet: 20
Frequenz Ground: 122,850 Mhz Mogas: ja
Platzrunde: NW 1300 ft Landegebühr: -
Platzhöhe: 328 ft Sunrise: 04:13 Uhr UTC
Pisten: 07/25 - 555 m x 20 m, ASPH Sunset: 18:21 Uhr UTC

Mitglieder, die in Salzgitter-Drütte fliegen

Flugwetter am Flugplatz Salzgitter-Drütte

Die METAR Information stammen aus EDVE (20.17 km entfernt).

METAR Code:
2024/04/10 10:50
EDVE 101050Z 26010KT 230V300 9999 SCT033 BKN042 12/05 Q1027

Flugschulen am Flugplatz Salzgitter-Drütte

Am Flugplatz Salzgitter-Drütte gibt es leider keine Flugschule.

Benachbarte Flugplätze und Flugschulen

Es gibt 11 weitere Flugplätze in einem Umkreis von 50 km um den Flugplatz Salzgitter-Drütte.

Jetzt anmelden

Passwort vergessen

Umfrage Archiv

Wie häufig haltet Ihr die Halbkreisflugregel ein?

Eher häufig!
34.5 %
Immer!
32.4 %
Hin und wieder!
16.4 %
Nie!
9.2 %
Eher selten!
7.6 %
Stimmen: 238 | Diskussion
Anzeige: Roland Aircraft
Statistik Alle Mitglieder

Aktuell sind 18 Besucher online.

Anzeige: EasyVFR